sensor_id;sensor_type;location;lat;lon;timestamp;P1;durP1;ratioP1;P2;durP2;ratioP2
7511;SDS011;9999;48.780;9.146;2022-10-20T00:00:32;4.68;;;3.83;;
7511;SDS011;9999;48.780;9.146;2022-10-20T00:02:59;3.78;;;3.25;;
7511;SDS011;9999;48.780;9.146;2022-10-20T00:05:25;8.73;;;4.18;;
7511;SDS011;9999;48.780;9.146;2022-10-20T00:07:54;5.95;;;3.88;;
7511;SDS011;9999;48.780;9.146;2022-10-20T00:10:20;5.32;;;3.47;;
7511;SDS011;9999;48.780;9.146;2022-10-20T00:12:47;6.72;;;3.85;;
7511;SDS011;9999;48.780;9.146;2022-10-20T00:15:14;4.80;;;3.72;;
7511;SDS011;9999;48.780;9.146;2022-10-20T00:17:41;5.10;;;3.42;;
7511;SDS011;9999;48.780;9.146;2022-10-20T00:20:09;6.05;;;3.50;;
7511;SDS011;9999;48.780;9.146;2022-10-20T00:22:36;7.20;;;3.63;;
7511;SDS011;9999;48.780;9.146;2022-10-20T00:25:05;4.50;;;3.35;;
7511;SDS011;9999;48.780;9.146;2022-10-20T00:27:32;6.00;;;3.15;;
7511;SDS011;9999;48.780;9.146;2022-10-20T00:29:59;10.30;;;4.22;;
7511;SDS011;9999;48.780;9.146;2022-10-20T00:32:26;4.28;;;3.25;;
7511;SDS011;9999;48.780;9.146;2022-10-20T00:34:54;4.88;;;4.05;;
7511;SDS011;9999;48.780;9.146;2022-10-20T00:37:21;4.97;;;3.90;;
7511;SDS011;9999;48.780;9.146;2022-10-20T00:39:48;4.68;;;3.00;;
7511;SDS011;9999;48.780;9.146;2022-10-20T00:42:17;3.70;;;3.22;;
7511;SDS011;9999;48.780;9.146;2022-10-20T00:44:49;3.78;;;2.95;;
7511;SDS011;9999;48.780;9.146;2022-10-20T00:47:18;6.45;;;3.25;;
7511;SDS011;9999;48.780;9.146;2022-10-20T00:49:48;5.97;;;3.92;;
7511;SDS011;9999;48.780;9.146;2022-10-20T00:52:16;5.35;;;3.47;;
7511;SDS011;9999;48.780;9.146;2022-10-20T00:54:46;4.88;;;3.80;;
7511;SDS011;9999;48.780;9.146;2022-10-20T00:57:14;7.63;;;4.10;;
7511;SDS011;9999;48.780;9.146;2022-10-20T00:59:42;5.57;;;3.88;;
7511;SDS011;9999;48.780;9.146;2022-10-20T01:02:10;5.82;;;3.10;;
7511;SDS011;9999;48.780;9.146;2022-10-20T01:04:38;5.88;;;4.60;;
7511;SDS011;9999;48.780;9.146;2022-10-20T01:07:05;10.05;;;5.00;;
7511;SDS011;9999;48.780;9.146;2022-10-20T01:09:32;5.57;;;3.88;;
7511;SDS011;9999;48.780;9.146;2022-10-20T01:12:02;6.38;;;4.10;;
7511;SDS011;9999;48.780;9.146;2022-10-20T01:14:38;6.35;;;4.45;;
7511;SDS011;9999;48.780;9.146;2022-10-20T01:17:15;7.40;;;4.53;;
7511;SDS011;9999;48.780;9.146;2022-10-20T01:22:59;3.20;;;2.58;;
7511;SDS011;9999;48.780;9.146;2022-10-20T01:25:56;7.20;;;4.18;;
7511;SDS011;9999;48.780;9.146;2022-10-20T01:28:40;4.97;;;3.17;;
7511;SDS011;9999;48.780;9.146;2022-10-20T01:31:13;6.22;;;3.33;;
7511;SDS011;9999;48.780;9.146;2022-10-20T01:33:47;7.00;;;3.80;;
7511;SDS011;9999;48.780;9.146;2022-10-20T01:36:23;6.30;;;4.18;;
7511;SDS011;9999;48.780;9.146;2022-10-20T01:38:58;6.32;;;3.05;;
7511;SDS011;9999;48.780;9.146;2022-10-20T01:41:30;7.78;;;3.35;;
7511;SDS011;9999;48.780;9.146;2022-10-20T01:44:01;7.00;;;4.13;;
7511;SDS011;9999;48.780;9.146;2022-10-20T01:46:30;5.82;;;3.42;;
7511;SDS011;9999;48.780;9.146;2022-10-20T01:49:00;6.40;;;3.47;;
7511;SDS011;9999;48.780;9.146;2022-10-20T01:51:29;5.47;;;3.75;;
7511;SDS011;9999;48.780;9.146;2022-10-20T01:53:57;6.82;;;3.50;;
7511;SDS011;9999;48.780;9.146;2022-10-20T01:56:26;8.30;;;4.03;;
7511;SDS011;9999;48.780;9.146;2022-10-20T01:59:07;6.03;;;4.43;;
7511;SDS011;9999;48.780;9.146;2022-10-20T02:02:00;6.82;;;3.75;;
7511;SDS011;9999;48.780;9.146;2022-10-20T02:04:52;5.80;;;4.57;;
7511;SDS011;9999;48.780;9.146;2022-10-20T02:07:28;9.63;;;4.00;;
7511;SDS011;9999;48.780;9.146;2022-10-20T02:09:58;7.75;;;3.92;;
7511;SDS011;9999;48.780;9.146;2022-10-20T02:12:31;5.88;;;3.83;;
7511;SDS011;9999;48.780;9.146;2022-10-20T02:15:02;6.32;;;4.55;;
7511;SDS011;9999;48.780;9.146;2022-10-20T02:17:32;7.43;;;3.90;;
7511;SDS011;9999;48.780;9.146;2022-10-20T02:20:02;8.35;;;4.45;;
7511;SDS011;9999;48.780;9.146;2022-10-20T02:22:31;4.57;;;3.42;;
7511;SDS011;9999;48.780;9.146;2022-10-20T02:24:59;5.18;;;3.63;;
7511;SDS011;9999;48.780;9.146;2022-10-20T02:27:27;5.32;;;3.55;;
7511;SDS011;9999;48.780;9.146;2022-10-20T02:29:58;8.98;;;4.05;;
7511;SDS011;9999;48.780;9.146;2022-10-20T02:32:29;5.50;;;3.83;;
7511;SDS011;9999;48.780;9.146;2022-10-20T02:34:58;9.18;;;4.85;;
7511;SDS011;9999;48.780;9.146;2022-10-20T02:37:25;5.15;;;3.65;;
7511;SDS011;9999;48.780;9.146;2022-10-20T02:39:52;6.63;;;3.95;;
7511;SDS011;9999;48.780;9.146;2022-10-20T02:42:19;10.02;;;5.03;;
7511;SDS011;9999;48.780;9.146;2022-10-20T02:44:45;13.20;;;4.40;;
7511;SDS011;9999;48.780;9.146;2022-10-20T02:47:12;8.20;;;4.30;;
7511;SDS011;9999;48.780;9.146;2022-10-20T02:49:40;10.63;;;5.10;;
7511;SDS011;9999;48.780;9.146;2022-10-20T02:52:07;9.02;;;5.05;;
7511;SDS011;9999;48.780;9.146;2022-10-20T02:54:34;8.02;;;5.28;;
7511;SDS011;9999;48.780;9.146;2022-10-20T02:57:01;8.25;;;4.05;;
7511;SDS011;9999;48.780;9.146;2022-10-20T02:59:28;7.15;;;4.28;;
7511;SDS011;9999;48.780;9.146;2022-10-20T03:01:55;7.20;;;4.07;;
7511;SDS011;9999;48.780;9.146;2022-10-20T03:04:22;9.65;;;5.15;;
7511;SDS011;9999;48.780;9.146;2022-10-20T03:06:50;5.97;;;4.25;;
7511;SDS011;9999;48.780;9.146;2022-10-20T03:09:16;5.80;;;4.43;;
7511;SDS011;9999;48.780;9.146;2022-10-20T03:11:44;6.93;;;4.80;;
7511;SDS011;9999;48.780;9.146;2022-10-20T03:14:10;5.75;;;4.45;;
7511;SDS011;9999;48.780;9.146;2022-10-20T03:16:37;6.65;;;3.33;;
7511;SDS011;9999;48.780;9.146;2022-10-20T03:19:04;6.85;;;4.78;;
7511;SDS011;9999;48.780;9.146;2022-10-20T03:21:31;17.75;;;4.72;;
7511;SDS011;9999;48.780;9.146;2022-10-20T03:23:59;9.23;;;5.60;;
7511;SDS011;9999;48.780;9.146;2022-10-20T03:26:26;5.10;;;3.92;;
7511;SDS011;9999;48.780;9.146;2022-10-20T03:28:53;9.20;;;4.20;;
7511;SDS011;9999;48.780;9.146;2022-10-20T03:31:20;21.20;;;5.05;;
7511;SDS011;9999;48.780;9.146;2022-10-20T03:33:47;5.70;;;3.78;;
7511;SDS011;9999;48.780;9.146;2022-10-20T03:36:14;9.05;;;5.35;;
7511;SDS011;9999;48.780;9.146;2022-10-20T03:38:40;7.95;;;5.22;;
7511;SDS011;9999;48.780;9.146;2022-10-20T03:41:09;10.25;;;5.75;;
7511;SDS011;9999;48.780;9.146;2022-10-20T03:43:37;7.15;;;4.70;;
7511;SDS011;9999;48.780;9.146;2022-10-20T03:46:04;6.32;;;4.97;;
7511;SDS011;9999;48.780;9.146;2022-10-20T03:48:33;10.70;;;5.07;;
7511;SDS011;9999;48.780;9.146;2022-10-20T03:51:00;8.82;;;4.78;;
7511;SDS011;9999;48.780;9.146;2022-10-20T03:53:27;9.02;;;4.22;;
7511;SDS011;9999;48.780;9.146;2022-10-20T03:55:54;8.18;;;4.10;;
7511;SDS011;9999;48.780;9.146;2022-10-20T03:58:23;6.60;;;4.47;;
7511;SDS011;9999;48.780;9.146;2022-10-20T04:00:50;8.65;;;4.55;;
7511;SDS011;9999;48.780;9.146;2022-10-20T04:03:17;9.05;;;4.85;;
7511;SDS011;9999;48.780;9.146;2022-10-20T04:05:44;7.68;;;3.92;;
7511;SDS011;9999;48.780;9.146;2022-10-20T04:08:11;12.70;;;5.07;;
7511;SDS011;9999;48.780;9.146;2022-10-20T04:10:38;8.05;;;4.60;;
7511;SDS011;9999;48.780;9.146;2022-10-20T04:13:05;7.68;;;4.18;;
7511;SDS011;9999;48.780;9.146;2022-10-20T04:15:33;7.97;;;5.03;;
7511;SDS011;9999;48.780;9.146;2022-10-20T04:18:00;6.68;;;4.63;;
7511;SDS011;9999;48.780;9.146;2022-10-20T04:20:26;9.82;;;4.55;;
7511;SDS011;9999;48.780;9.146;2022-10-20T04:22:53;8.32;;;4.65;;
7511;SDS011;9999;48.780;9.146;2022-10-20T04:25:20;6.15;;;3.97;;
7511;SDS011;9999;48.780;9.146;2022-10-20T04:27:47;9.75;;;4.78;;
7511;SDS011;9999;48.780;9.146;2022-10-20T04:30:14;7.80;;;5.32;;
7511;SDS011;9999;48.780;9.146;2022-10-20T04:32:42;8.65;;;5.13;;
7511;SDS011;9999;48.780;9.146;2022-10-20T04:35:09;5.78;;;4.22;;
7511;SDS011;9999;48.780;9.146;2022-10-20T04:37:36;5.38;;;3.58;;
7511;SDS011;9999;48.780;9.146;2022-10-20T04:40:03;7.22;;;4.22;;
7511;SDS011;9999;48.780;9.146;2022-10-20T04:42:30;6.75;;;4.35;;
7511;SDS011;9999;48.780;9.146;2022-10-20T04:44:57;12.30;;;5.82;;
7511;SDS011;9999;48.780;9.146;2022-10-20T04:47:24;8.55;;;4.95;;
7511;SDS011;9999;48.780;9.146;2022-10-20T04:49:52;7.07;;;4.50;;
7511;SDS011;9999;48.780;9.146;2022-10-20T04:52:19;6.68;;;4.22;;
7511;SDS011;9999;48.780;9.146;2022-10-20T04:54:46;6.47;;;3.70;;
7511;SDS011;9999;48.780;9.146;2022-10-20T04:57:13;5.07;;;3.85;;
7511;SDS011;9999;48.780;9.146;2022-10-20T04:59:39;8.80;;;4.55;;
7511;SDS011;9999;48.780;9.146;2022-10-20T05:02:06;31.80;;;4.90;;
7511;SDS011;9999;48.780;9.146;2022-10-20T05:04:35;6.18;;;4.65;;
7511;SDS011;9999;48.780;9.146;2022-10-20T05:07:03;6.47;;;4.25;;
7511;SDS011;9999;48.780;9.146;2022-10-20T05:09:30;6.90;;;4.03;;
7511;SDS011;9999;48.780;9.146;2022-10-20T05:11:58;7.20;;;4.47;;
7511;SDS011;9999;48.780;9.146;2022-10-20T05:14:25;7.15;;;3.92;;
7511;SDS011;9999;48.780;9.146;2022-10-20T05:16:51;9.15;;;5.00;;
7511;SDS011;9999;48.780;9.146;2022-10-20T05:19:18;4.93;;;3.53;;
7511;SDS011;9999;48.780;9.146;2022-10-20T05:21:45;7.57;;;3.72;;
7511;SDS011;9999;48.780;9.146;2022-10-20T05:24:14;9.10;;;4.93;;
7511;SDS011;9999;48.780;9.146;2022-10-20T05:26:42;10.15;;;4.70;;
7511;SDS011;9999;48.780;9.146;2022-10-20T05:29:09;8.27;;;4.90;;
7511;SDS011;9999;48.780;9.146;2022-10-20T05:31:37;5.70;;;3.83;;
7511;SDS011;9999;48.780;9.146;2022-10-20T05:34:05;11.10;;;4.22;;
7511;SDS011;9999;48.780;9.146;2022-10-20T05:36:32;6.22;;;3.35;;
7511;SDS011;9999;48.780;9.146;2022-10-20T05:38:59;8.57;;;4.57;;
7511;SDS011;9999;48.780;9.146;2022-10-20T05:41:27;9.80;;;4.85;;
7511;SDS011;9999;48.780;9.146;2022-10-20T05:43:56;15.18;;;5.32;;
7511;SDS011;9999;48.780;9.146;2022-10-20T05:46:24;11.52;;;5.18;;
7511;SDS011;9999;48.780;9.146;2022-10-20T05:48:53;12.15;;;5.20;;
7511;SDS011;9999;48.780;9.146;2022-10-20T05:51:22;10.15;;;5.22;;
7511;SDS011;9999;48.780;9.146;2022-10-20T05:53:51;10.18;;;3.88;;
7511;SDS011;9999;48.780;9.146;2022-10-20T05:56:21;6.35;;;3.42;;
7511;SDS011;9999;48.780;9.146;2022-10-20T05:58:50;7.45;;;4.93;;
7511;SDS011;9999;48.780;9.146;2022-10-20T06:01:18;8.07;;;4.55;;
7511;SDS011;9999;48.780;9.146;2022-10-20T06:03:48;7.95;;;5.20;;
7511;SDS011;9999;48.780;9.146;2022-10-20T06:06:16;6.10;;;3.30;;
7511;SDS011;9999;48.780;9.146;2022-10-20T06:08:43;7.05;;;4.40;;
7511;SDS011;9999;48.780;9.146;2022-10-20T06:11:11;8.38;;;5.10;;
7511;SDS011;9999;48.780;9.146;2022-10-20T06:13:39;7.82;;;4.25;;
7511;SDS011;9999;48.780;9.146;2022-10-20T06:16:08;8.05;;;4.45;;
7511;SDS011;9999;48.780;9.146;2022-10-20T06:18:36;9.77;;;4.40;;
7511;SDS011;9999;48.780;9.146;2022-10-20T06:21:04;6.50;;;4.22;;
7511;SDS011;9999;48.780;9.146;2022-10-20T06:23:33;7.65;;;4.20;;
7511;SDS011;9999;48.780;9.146;2022-10-20T06:26:00;7.22;;;3.85;;
7511;SDS011;9999;48.780;9.146;2022-10-20T06:28:28;7.45;;;4.78;;
7511;SDS011;9999;48.780;9.146;2022-10-20T06:30:56;7.15;;;4.32;;
7511;SDS011;9999;48.780;9.146;2022-10-20T06:33:24;6.60;;;4.18;;
7511;SDS011;9999;48.780;9.146;2022-10-20T06:35:57;15.13;;;4.32;;
7511;SDS011;9999;48.780;9.146;2022-10-20T06:38:25;7.72;;;4.65;;
7511;SDS011;9999;48.780;9.146;2022-10-20T06:40:51;5.43;;;3.85;;
7511;SDS011;9999;48.780;9.146;2022-10-20T06:43:18;6.30;;;3.70;;
7511;SDS011;9999;48.780;9.146;2022-10-20T06:45:52;7.50;;;4.70;;
7511;SDS011;9999;48.780;9.146;2022-10-20T06:48:19;10.23;;;4.97;;
7511;SDS011;9999;48.780;9.146;2022-10-20T06:50:48;7.32;;;4.25;;
7511;SDS011;9999;48.780;9.146;2022-10-20T06:53:15;8.43;;;4.47;;
7511;SDS011;9999;48.780;9.146;2022-10-20T06:55:41;8.65;;;4.55;;
7511;SDS011;9999;48.780;9.146;2022-10-20T06:58:11;7.80;;;5.50;;
7511;SDS011;9999;48.780;9.146;2022-10-20T07:00:38;9.18;;;5.35;;
7511;SDS011;9999;48.780;9.146;2022-10-20T07:03:05;6.80;;;4.78;;
7511;SDS011;9999;48.780;9.146;2022-10-20T07:05:32;9.15;;;4.80;;
7511;SDS011;9999;48.780;9.146;2022-10-20T07:08:01;9.00;;;5.05;;
7511;SDS011;9999;48.780;9.146;2022-10-20T07:10:31;7.45;;;4.25;;
7511;SDS011;9999;48.780;9.146;2022-10-20T07:12:58;10.20;;;5.20;;
7511;SDS011;9999;48.780;9.146;2022-10-20T07:15:25;8.15;;;4.22;;
7511;SDS011;9999;48.780;9.146;2022-10-20T07:17:51;6.07;;;3.90;;
7511;SDS011;9999;48.780;9.146;2022-10-20T07:20:18;9.90;;;4.43;;
7511;SDS011;9999;48.780;9.146;2022-10-20T07:22:45;6.90;;;3.85;;
7511;SDS011;9999;48.780;9.146;2022-10-20T07:25:13;7.97;;;4.45;;
7511;SDS011;9999;48.780;9.146;2022-10-20T07:27:40;8.57;;;3.72;;
7511;SDS011;9999;48.780;9.146;2022-10-20T07:30:07;7.85;;;3.38;;
7511;SDS011;9999;48.780;9.146;2022-10-20T07:32:34;8.23;;;4.88;;
7511;SDS011;9999;48.780;9.146;2022-10-20T07:35:01;5.85;;;3.78;;
7511;SDS011;9999;48.780;9.146;2022-10-20T07:37:28;4.20;;;3.80;;
7511;SDS011;9999;48.780;9.146;2022-10-20T07:39:55;8.60;;;4.57;;
7511;SDS011;9999;48.780;9.146;2022-10-20T07:42:23;5.80;;;3.67;;
7511;SDS011;9999;48.780;9.146;2022-10-20T07:44:50;5.70;;;3.92;;
7511;SDS011;9999;48.780;9.146;2022-10-20T07:47:17;7.55;;;4.20;;
7511;SDS011;9999;48.780;9.146;2022-10-20T07:49:43;7.70;;;4.65;;
7511;SDS011;9999;48.780;9.146;2022-10-20T07:52:13;6.78;;;3.70;;
7511;SDS011;9999;48.780;9.146;2022-10-20T07:54:41;7.45;;;4.13;;
7511;SDS011;9999;48.780;9.146;2022-10-20T07:57:07;12.02;;;4.45;;
7511;SDS011;9999;48.780;9.146;2022-10-20T07:59:36;7.85;;;3.78;;
7511;SDS011;9999;48.780;9.146;2022-10-20T08:02:03;5.05;;;3.20;;
7511;SDS011;9999;48.780;9.146;2022-10-20T08:04:30;7.68;;;4.00;;
7511;SDS011;9999;48.780;9.146;2022-10-20T08:06:56;7.40;;;3.60;;
7511;SDS011;9999;48.780;9.146;2022-10-20T08:09:24;5.03;;;3.50;;
7511;SDS011;9999;48.780;9.146;2022-10-20T08:11:51;19.25;;;4.35;;
7511;SDS011;9999;48.780;9.146;2022-10-20T08:14:24;5.97;;;3.40;;
7511;SDS011;9999;48.780;9.146;2022-10-20T08:16:57;6.40;;;3.83;;
7511;SDS011;9999;48.780;9.146;2022-10-20T08:19:24;5.55;;;3.47;;
7511;SDS011;9999;48.780;9.146;2022-10-20T08:21:51;9.48;;;5.30;;
7511;SDS011;9999;48.780;9.146;2022-10-20T08:24:18;5.35;;;4.00;;
7511;SDS011;9999;48.780;9.146;2022-10-20T08:26:45;5.68;;;4.18;;
7511;SDS011;9999;48.780;9.146;2022-10-20T08:29:12;7.95;;;4.55;;
7511;SDS011;9999;48.780;9.146;2022-10-20T08:31:39;4.88;;;2.97;;
7511;SDS011;9999;48.780;9.146;2022-10-20T08:34:07;6.78;;;4.28;;
7511;SDS011;9999;48.780;9.146;2022-10-20T08:36:34;7.10;;;4.22;;
7511;SDS011;9999;48.780;9.146;2022-10-20T08:39:02;4.43;;;2.95;;
7511;SDS011;9999;48.780;9.146;2022-10-20T08:41:30;5.28;;;3.55;;
7511;SDS011;9999;48.780;9.146;2022-10-20T08:44:00;4.90;;;3.47;;
7511;SDS011;9999;48.780;9.146;2022-10-20T08:46:30;5.32;;;2.97;;
7511;SDS011;9999;48.780;9.146;2022-10-20T08:48:59;8.23;;;4.22;;
7511;SDS011;9999;48.780;9.146;2022-10-20T08:51:29;5.47;;;3.60;;
7511;SDS011;9999;48.780;9.146;2022-10-20T08:53:58;3.67;;;3.28;;
7511;SDS011;9999;48.780;9.146;2022-10-20T08:56:28;5.13;;;2.92;;
7511;SDS011;9999;48.780;9.146;2022-10-20T08:58:56;5.80;;;3.60;;
7511;SDS011;9999;48.780;9.146;2022-10-20T09:01:23;7.57;;;3.88;;
7511;SDS011;9999;48.780;9.146;2022-10-20T09:03:53;3.28;;;2.95;;
7511;SDS011;9999;48.780;9.146;2022-10-20T09:06:22;4.65;;;3.65;;
7511;SDS011;9999;48.780;9.146;2022-10-20T09:08:51;8.45;;;4.40;;
7511;SDS011;9999;48.780;9.146;2022-10-20T09:11:20;5.90;;;3.60;;
7511;SDS011;9999;48.780;9.146;2022-10-20T09:13:49;7.70;;;3.50;;
7511;SDS011;9999;48.780;9.146;2022-10-20T09:16:18;4.68;;;3.17;;
7511;SDS011;9999;48.780;9.146;2022-10-20T09:18:50;3.67;;;3.22;;
7511;SDS011;9999;48.780;9.146;2022-10-20T09:21:21;8.27;;;4.30;;
7511;SDS011;9999;48.780;9.146;2022-10-20T09:23:49;3.55;;;3.20;;
7511;SDS011;9999;48.780;9.146;2022-10-20T09:26:20;10.35;;;3.70;;
7511;SDS011;9999;48.780;9.146;2022-10-20T09:28:48;3.03;;;2.53;;
7511;SDS011;9999;48.780;9.146;2022-10-20T09:31:20;5.35;;;3.35;;
7511;SDS011;9999;48.780;9.146;2022-10-20T09:33:49;6.45;;;3.38;;
7511;SDS011;9999;48.780;9.146;2022-10-20T09:36:16;4.25;;;3.25;;
7511;SDS011;9999;48.780;9.146;2022-10-20T09:38:45;4.35;;;3.00;;
7511;SDS011;9999;48.780;9.146;2022-10-20T09:41:15;5.07;;;3.30;;
7511;SDS011;9999;48.780;9.146;2022-10-20T09:43:48;4.15;;;2.90;;
7511;SDS011;9999;48.780;9.146;2022-10-20T09:46:19;4.15;;;3.00;;
7511;SDS011;9999;48.780;9.146;2022-10-20T09:48:48;5.07;;;3.47;;
7511;SDS011;9999;48.780;9.146;2022-10-20T09:51:17;4.25;;;3.20;;
7511;SDS011;9999;48.780;9.146;2022-10-20T09:53:49;7.28;;;3.40;;
7511;SDS011;9999;48.780;9.146;2022-10-20T09:56:22;3.38;;;2.67;;
7511;SDS011;9999;48.780;9.146;2022-10-20T09:58:55;3.53;;;2.58;;
7511;SDS011;9999;48.780;9.146;2022-10-20T10:01:24;4.93;;;2.90;;
7511;SDS011;9999;48.780;9.146;2022-10-20T10:03:52;5.88;;;3.28;;
7511;SDS011;9999;48.780;9.146;2022-10-20T10:06:31;5.93;;;3.40;;
7511;SDS011;9999;48.780;9.146;2022-10-20T10:09:24;8.70;;;3.80;;
7511;SDS011;9999;48.780;9.146;2022-10-20T10:11:58;7.25;;;3.42;;
7511;SDS011;9999;48.780;9.146;2022-10-20T10:14:29;5.65;;;3.58;;
7511;SDS011;9999;48.780;9.146;2022-10-20T10:16:58;7.60;;;3.58;;
7511;SDS011;9999;48.780;9.146;2022-10-20T10:19:26;4.15;;;2.70;;
7511;SDS011;9999;48.780;9.146;2022-10-20T10:21:55;8.77;;;3.33;;
7511;SDS011;9999;48.780;9.146;2022-10-20T10:27:17;4.18;;;2.92;;
7511;SDS011;9999;48.780;9.146;2022-10-20T10:29:47;4.00;;;2.80;;
7511;SDS011;9999;48.780;9.146;2022-10-20T10:32:15;4.43;;;3.30;;
7511;SDS011;9999;48.780;9.146;2022-10-20T10:34:48;4.38;;;2.80;;
7511;SDS011;9999;48.780;9.146;2022-10-20T10:37:24;5.88;;;2.90;;
7511;SDS011;9999;48.780;9.146;2022-10-20T10:39:52;4.50;;;2.47;;
7511;SDS011;9999;48.780;9.146;2022-10-20T10:45:16;2.95;;;2.42;;
7511;SDS011;9999;48.780;9.146;2022-10-20T10:50:58;3.08;;;2.45;;
7511;SDS011;9999;48.780;9.146;2022-10-20T10:53:30;2.42;;;2.22;;
7511;SDS011;9999;48.780;9.146;2022-10-20T10:56:11;3.83;;;2.95;;
7511;SDS011;9999;48.780;9.146;2022-10-20T10:58:44;3.70;;;3.13;;
7511;SDS011;9999;48.780;9.146;2022-10-20T11:01:32;3.33;;;2.35;;
7511;SDS011;9999;48.780;9.146;2022-10-20T11:04:28;2.80;;;2.42;;
7511;SDS011;9999;48.780;9.146;2022-10-20T11:07:20;2.20;;;2.05;;
7511;SDS011;9999;48.780;9.146;2022-10-20T11:09:59;13.45;;;2.33;;
7511;SDS011;9999;48.780;9.146;2022-10-20T11:12:48;4.57;;;2.47;;
7511;SDS011;9999;48.780;9.146;2022-10-20T11:15:31;6.28;;;2.83;;
7511;SDS011;9999;48.780;9.146;2022-10-20T11:18:11;4.53;;;3.05;;
7511;SDS011;9999;48.780;9.146;2022-10-20T11:20:48;3.38;;;2.33;;
7511;SDS011;9999;48.780;9.146;2022-10-20T11:23:34;4.60;;;2.92;;
7511;SDS011;9999;48.780;9.146;2022-10-20T11:26:18;7.20;;;3.58;;
7511;SDS011;9999;48.780;9.146;2022-10-20T11:28:53;7.45;;;2.78;;
7511;SDS011;9999;48.780;9.146;2022-10-20T11:31:23;3.60;;;2.25;;
7511;SDS011;9999;48.780;9.146;2022-10-20T11:33:59;3.60;;;2.45;;
7511;SDS011;9999;48.780;9.146;2022-10-20T11:36:31;3.35;;;2.38;;
7511;SDS011;9999;48.780;9.146;2022-10-20T11:39:02;2.45;;;1.90;;
7511;SDS011;9999;48.780;9.146;2022-10-20T11:41:37;4.43;;;3.08;;
7511;SDS011;9999;48.780;9.146;2022-10-20T11:44:11;3.38;;;2.40;;
7511;SDS011;9999;48.780;9.146;2022-10-20T11:46:41;4.07;;;2.95;;
7511;SDS011;9999;48.780;9.146;2022-10-20T11:49:13;4.07;;;2.50;;
7511;SDS011;9999;48.780;9.146;2022-10-20T11:51:47;2.70;;;2.50;;
7511;SDS011;9999;48.780;9.146;2022-10-20T11:54:30;3.08;;;2.10;;
7511;SDS011;9999;48.780;9.146;2022-10-20T11:57:19;2.80;;;2.60;;
7511;SDS011;9999;48.780;9.146;2022-10-20T12:00:01;4.25;;;2.70;;
7511;SDS011;9999;48.780;9.146;2022-10-20T12:05:56;3.72;;;2.53;;
7511;SDS011;9999;48.780;9.146;2022-10-20T12:11:50;7.90;;;2.80;;
7511;SDS011;9999;48.780;9.146;2022-10-20T12:14:23;2.80;;;2.13;;
7511;SDS011;9999;48.780;9.146;2022-10-20T12:17:00;2.55;;;2.10;;
7511;SDS011;9999;48.780;9.146;2022-10-20T12:19:31;8.05;;;3.22;;
7511;SDS011;9999;48.780;9.146;2022-10-20T12:22:03;9.30;;;2.80;;
7511;SDS011;9999;48.780;9.146;2022-10-20T12:24:33;6.43;;;2.33;;
7511;SDS011;9999;48.780;9.146;2022-10-20T12:30:03;2.75;;;2.38;;
7511;SDS011;9999;48.780;9.146;2022-10-20T12:32:56;3.90;;;2.33;;
7511;SDS011;9999;48.780;9.146;2022-10-20T12:38:38;5.68;;;2.97;;
7511;SDS011;9999;48.780;9.146;2022-10-20T12:41:07;3.28;;;2.65;;
7511;SDS011;9999;48.780;9.146;2022-10-20T12:43:46;5.60;;;3.33;;
7511;SDS011;9999;48.780;9.146;2022-10-20T12:46:17;4.25;;;2.17;;
7511;SDS011;9999;48.780;9.146;2022-10-20T12:48:47;9.15;;;2.55;;
7511;SDS011;9999;48.780;9.146;2022-10-20T12:51:26;3.53;;;2.75;;
7511;SDS011;9999;48.780;9.146;2022-10-20T12:54:03;3.90;;;3.35;;
7511;SDS011;9999;48.780;9.146;2022-10-20T12:56:34;5.80;;;2.65;;
7511;SDS011;9999;48.780;9.146;2022-10-20T13:05:10;3.97;;;2.95;;
7511;SDS011;9999;48.780;9.146;2022-10-20T13:10:54;6.10;;;3.33;;
7511;SDS011;9999;48.780;9.146;2022-10-20T13:16:21;3.90;;;2.78;;
7511;SDS011;9999;48.780;9.146;2022-10-20T13:18:49;3.33;;;2.53;;
7511;SDS011;9999;48.780;9.146;2022-10-20T13:21:28;3.58;;;2.97;;
7511;SDS011;9999;48.780;9.146;2022-10-20T13:24:02;7.00;;;2.78;;
7511;SDS011;9999;48.780;9.146;2022-10-20T13:26:36;3.42;;;2.72;;
7511;SDS011;9999;48.780;9.146;2022-10-20T13:29:10;3.28;;;2.53;;
7511;SDS011;9999;48.780;9.146;2022-10-20T13:31:45;4.72;;;3.03;;
7511;SDS011;9999;48.780;9.146;2022-10-20T13:34:20;5.75;;;2.60;;
7511;SDS011;9999;48.780;9.146;2022-10-20T13:36:58;3.67;;;2.47;;
7511;SDS011;9999;48.780;9.146;2022-10-20T13:39:36;2.47;;;2.25;;
7511;SDS011;9999;48.780;9.146;2022-10-20T13:42:16;3.70;;;2.33;;
7511;SDS011;9999;48.780;9.146;2022-10-20T13:45:00;3.35;;;2.45;;
7511;SDS011;9999;48.780;9.146;2022-10-20T13:47:45;2.85;;;1.98;;
7511;SDS011;9999;48.780;9.146;2022-10-20T13:50:16;4.15;;;2.75;;
7511;SDS011;9999;48.780;9.146;2022-10-20T13:52:47;7.55;;;3.03;;
7511;SDS011;9999;48.780;9.146;2022-10-20T13:55:17;3.05;;;2.60;;
7511;SDS011;9999;48.780;9.146;2022-10-20T13:57:49;2.83;;;2.50;;
7511;SDS011;9999;48.780;9.146;2022-10-20T14:00:19;3.60;;;2.60;;
7511;SDS011;9999;48.780;9.146;2022-10-20T14:02:51;4.20;;;3.28;;
7511;SDS011;9999;48.780;9.146;2022-10-20T14:05:24;6.07;;;3.10;;
7511;SDS011;9999;48.780;9.146;2022-10-20T14:07:52;17.33;;;3.33;;
7511;SDS011;9999;48.780;9.146;2022-10-20T14:10:20;5.70;;;3.83;;
7511;SDS011;9999;48.780;9.146;2022-10-20T14:12:51;3.15;;;2.28;;
7511;SDS011;9999;48.780;9.146;2022-10-20T14:15:20;3.97;;;2.90;;
7511;SDS011;9999;48.780;9.146;2022-10-20T14:17:54;3.85;;;3.28;;
7511;SDS011;9999;48.780;9.146;2022-10-20T14:20:27;6.57;;;3.15;;
7511;SDS011;9999;48.780;9.146;2022-10-20T14:22:54;5.93;;;2.80;;
7511;SDS011;9999;48.780;9.146;2022-10-20T14:25:24;3.90;;;3.40;;
7511;SDS011;9999;48.780;9.146;2022-10-20T14:27:54;3.28;;;2.58;;
7511;SDS011;9999;48.780;9.146;2022-10-20T14:30:21;5.75;;;3.33;;
7511;SDS011;9999;48.780;9.146;2022-10-20T14:32:51;3.72;;;2.88;;
7511;SDS011;9999;48.780;9.146;2022-10-20T14:35:24;3.30;;;2.10;;
7511;SDS011;9999;48.780;9.146;2022-10-20T14:37:57;5.90;;;3.22;;
7511;SDS011;9999;48.780;9.146;2022-10-20T14:40:27;4.57;;;2.83;;
7511;SDS011;9999;48.780;9.146;2022-10-20T14:43:01;14.98;;;2.95;;
7511;SDS011;9999;48.780;9.146;2022-10-20T14:45:31;9.40;;;4.03;;
7511;SDS011;9999;48.780;9.146;2022-10-20T14:47:58;6.80;;;2.83;;
7511;SDS011;9999;48.780;9.146;2022-10-20T14:50:30;3.95;;;2.95;;
7511;SDS011;9999;48.780;9.146;2022-10-20T14:53:15;3.20;;;2.40;;
7511;SDS011;9999;48.780;9.146;2022-10-20T14:55:43;4.53;;;2.83;;
7511;SDS011;9999;48.780;9.146;2022-10-20T14:58:27;6.10;;;3.00;;
7511;SDS011;9999;48.780;9.146;2022-10-20T15:01:12;5.68;;;3.05;;
7511;SDS011;9999;48.780;9.146;2022-10-20T15:03:40;8.15;;;3.80;;
7511;SDS011;9999;48.780;9.146;2022-10-20T15:06:09;3.75;;;2.70;;
7511;SDS011;9999;48.780;9.146;2022-10-20T15:08:39;4.05;;;2.97;;
7511;SDS011;9999;48.780;9.146;2022-10-20T15:11:19;6.07;;;3.78;;
7511;SDS011;9999;48.780;9.146;2022-10-20T15:13:50;3.20;;;2.65;;
7511;SDS011;9999;48.780;9.146;2022-10-20T15:16:31;5.63;;;2.92;;
7511;SDS011;9999;48.780;9.146;2022-10-20T15:19:09;5.07;;;3.28;;
7511;SDS011;9999;48.780;9.146;2022-10-20T15:21:51;6.68;;;2.85;;
7511;SDS011;9999;48.780;9.146;2022-10-20T15:24:25;6.57;;;3.38;;
7511;SDS011;9999;48.780;9.146;2022-10-20T15:26:52;6.15;;;3.05;;
7511;SDS011;9999;48.780;9.146;2022-10-20T15:29:20;3.38;;;3.08;;
7511;SDS011;9999;48.780;9.146;2022-10-20T15:31:47;4.55;;;2.78;;
7511;SDS011;9999;48.780;9.146;2022-10-20T15:34:14;4.78;;;2.70;;
7511;SDS011;9999;48.780;9.146;2022-10-20T15:36:41;3.42;;;2.72;;
7511;SDS011;9999;48.780;9.146;2022-10-20T15:39:08;4.53;;;3.08;;
7511;SDS011;9999;48.780;9.146;2022-10-20T15:41:36;3.80;;;2.70;;
7511;SDS011;9999;48.780;9.146;2022-10-20T15:44:09;5.47;;;3.25;;
7511;SDS011;9999;48.780;9.146;2022-10-20T15:46:39;4.32;;;2.80;;
7511;SDS011;9999;48.780;9.146;2022-10-20T15:49:07;5.10;;;3.33;;
7511;SDS011;9999;48.780;9.146;2022-10-20T15:51:34;2.85;;;2.60;;
7511;SDS011;9999;48.780;9.146;2022-10-20T15:54:03;3.53;;;2.97;;
7511;SDS011;9999;48.780;9.146;2022-10-20T15:56:31;3.00;;;2.45;;
7511;SDS011;9999;48.780;9.146;2022-10-20T15:58:59;5.00;;;3.00;;
7511;SDS011;9999;48.780;9.146;2022-10-20T16:01:26;5.35;;;2.60;;
7511;SDS011;9999;48.780;9.146;2022-10-20T16:03:54;4.05;;;3.05;;
7511;SDS011;9999;48.780;9.146;2022-10-20T16:06:21;4.75;;;2.78;;
7511;SDS011;9999;48.780;9.146;2022-10-20T16:08:48;3.70;;;3.35;;
7511;SDS011;9999;48.780;9.146;2022-10-20T16:11:16;5.93;;;3.30;;